Lexington Weather

Lexington, Massachusetts, USA

67°F
7/31/2021 8:19pm 
  • Lexington Conditions: Clear
  • Temperature: 66.7°F / 19.3°CColder 1.8°F than last hour.
  • Dew Point: 54.7°FDecreased 0.3°Fsince last hour.
  • Relative Humidity: 65%Increased 3.0% since last hour.
  • Wind: Calm, 10-min avg: Calm, gust: None
  • Barometer: 29.87 in Steady
  • Visibility: 10 miles
  • Rain Today: 0.00 in
  •   

Nearby Reports - Official Weather Stations - Current Conditions

Data from the National Weather Service

KBED - Bedford, MA


Distance from station: WNW 4mi, 6km

Updated Sat Jul 31, 2021 7:51pm EDT

Clear

Clear

Wind from WNW

Wind:

WNW 3 mph, 6 km/h

Temperature: 66°F (19°C)

Dew Point: 54°F (12°C)

Humidity: 64%

Barometer: 29.90 in (1012.5 hPa)

Clouds: Clear

Visibility: 10 miles (16 km)


2021/07/31 23:51 KBED 312351Z 30003KT 10SM CLR 19/12 A2990 RMK AO2 SLP137 T01890122 10250 20189 53002

KBOS - Boston, MA


Distance from station: ESE 12mi, 20km

Updated Sat Jul 31, 2021 7:54pm EDT

Few Clouds

Few Clouds

Wind from W

Wind:

W 12 mph, 19 km/h

Temperature: 73°F (23°C)

Dew Point: 46°F (8°C)

Humidity: 38%

Barometer: 29.91 in (1012.9 hPa)

Clouds: Few Clouds

Visibility: 10 miles (16 km)

Cloud details: Few Clouds 6500 ft
Few Clouds 22000 ft


2021/07/31 23:54 KBOS 312354Z 27010KT 10SM FEW065 FEW220 23/08 A2991 RMK AO2 SLP128 T02280083 10261 20228 53004

KOWD - Norwood, MA


Distance from station: SSE 18mi, 29km

Updated Sat Jul 31, 2021 7:53pm EDT

Clear

Clear

Wind from W

Wind:

W 5 mph, 7 km/h

Temperature: 70°F (21°C)

Dew Point: 50°F (10°C)

Humidity: 50%

Barometer: 29.91 in (1012.9 hPa)

Clouds: Clear

Visibility: 10 miles (16 km)


2021/07/31 23:53 KOWD 312353Z 28004KT 10SM CLR 21/10 A2991 RMK AO2 SLP128 T02060100 10256 20206 53002

KBVY - Beverly, MA


Distance from station: ENE 19mi, 31km

Updated Sat Jul 31, 2021 7:53pm EDT

Clear

Clear

Wind from W

Wind:

W 5 mph, 7 km/h

Temperature: 70°F (21°C)

Dew Point: 30°F (-1°C)

Humidity: 23%

Barometer: 29.90 in (1012.5 hPa)

Clouds: Clear

Visibility: 10 miles (16 km)


2021/07/31 23:53 KBVY 312353Z 27004KT 10SM CLR 21/M01 A2990 RMK AO2 SLP119 T02061006 10244 20206 53003

KLWM - Lawrence, MA


Distance from station: NNE 20mi, 32km

Updated Sat Jul 31, 2021 7:54pm EDT

Clear

Clear

Wind from W

Wind:

W 5 mph, 7 km/h

Temperature: 70°F (21°C)

Dew Point: 48°F (9°C)

Humidity: 46%

Barometer: 29.92 in (1013.2 hPa)

Clouds: Clear

Visibility: 10 miles (16 km)


2021/07/31 23:54 KLWM 312354Z 28004KT 10SM CLR 21/09 A2992 RMK AO2 SLP132 T02060089 10239 20206 53004

KFIT - Fitchburg, MA


Distance from station: WNW 27mi, 44km

Updated Sat Jul 31, 2021 7:52pm EDT

Clear

Clear

Wind from WSW

Wind:

WSW 3 mph, 6 km/h

Temperature: 64°F (18°C)

Dew Point: 50°F (10°C)

Humidity: 60%

Barometer: 29.93 in (1013.5 hPa)

Clouds: Clear

Visibility: 10 miles (16 km)


2021/07/31 23:52 KFIT 312352Z AUTO 25003KT 10SM CLR 18/10 A2993 RMK AO2 SLP135 T01830100 10239 20183 53002 TSNO

KASH - Nashua/Boire Fld, NH


Distance from station: NNW 28mi, 44km

Updated Sat Jul 31, 2021 7:56pm EDT

Clear

Clear

Wind from W

Wind:

W 3 mph, 6 km/h

Temperature: 64°F (18°C)

Dew Point: 54°F (12°C)

Humidity: 68%

Barometer: 29.92 in (1013.2 hPa)

Clouds: Clear

Visibility: 10 miles (16 km)


2021/07/31 23:56 KASH 312356Z 26003KT 10SM CLR 18/12 A2992 RMK AO2 SLP135 T01830122 10239 20183 53003

KORH - Worcester, MA


Distance from station: WSW 34mi, 55km

Updated Sat Jul 31, 2021 7:54pm EDT

Clear

Clear

Wind from WNW

Wind:

WNW 5 mph, 7 km/h

Temperature: 64°F (18°C)

Dew Point: 48°F (9°C)

Humidity: 56%

Barometer: 29.95 in (1014.2 hPa)

Clouds: Clear

Visibility: 10 miles (16 km)


2021/07/31 23:54 KORH 312354Z 29004KT 10SM CLR 18/09 A2995 RMK AO2 SLP141 T01830094 10211 20183 55001

KMHT - Manchester, NH


Distance from station: NNW 35mi, 57km

Updated Sat Jul 31, 2021 7:53pm EDT

Mostly cloudy

Mostly cloudy

Wind from W

Wind:

W 3 mph, 6 km/h

Temperature: 72°F (22°C)

Dew Point: 48°F (9°C)

Humidity: 44%

Barometer: 29.89 in (1012.2 hPa)

Clouds: Mostly cloudy

Visibility: 10 miles (16 km)

Cloud details: Few Clouds 6000 ft
Mostly cloudy 25000 ft


2021/07/31 23:53 KMHT 312353Z 27003KT 10SM FEW060 BKN250 22/09 A2989 RMK AO2 SLP133 T02170089 10244 20217 52002

KGHG - Marshfield, MA


Distance from station: SE 38mi, 60km

Updated Sat Jul 31, 2021 7:55pm EDT

Clear

Clear

Wind from calm

Wind:

Calm

Temperature: 68°F (20°C)

Dew Point: 52°F (11°C)

Humidity: 56%

Barometer: 29.91 in (1012.9 hPa)

Clouds: Clear

Visibility: 10 miles (16 km)


2021/07/31 23:55 KGHG 312355Z AUTO 00000KT 10SM CLR 20/11 A2991 RMK AO2

KSFZ - Pawtucket, RI


Distance from station: SSW 39mi, 62km

Updated Sat Jul 31, 2021 7:56pm EDT

Clear

Clear

Wind from calm

Wind:

Calm

Temperature: 63°F (17°C)

Dew Point: 55°F (13°C)

Humidity: 77%

Barometer: 29.94 in (1013.9 hPa)

Clouds: Clear

Visibility: 10 miles (16 km)


2021/07/31 23:56 KSFZ 312356Z AUTO 00000KT 10SM CLR 17/13 A2994 RMK AO2 SLP143 6//// T01670133 10228 20167 55000 PNO $

KTAN - Taunton, MA


Distance from station: SSE 40mi, 65km

Updated Sat Jul 31, 2021 7:52pm EDT

Clear

Clear

Wind from calm

Wind:

Calm

Temperature: 64°F (18°C)

Dew Point: 55°F (13°C)

Humidity: 73%

Barometer: 29.91 in (1012.9 hPa)

Clouds: Clear

Visibility: 10 miles (16 km)


2021/07/31 23:52 KTAN 312352Z AUTO 00000KT 10SM CLR 18/13 A2991 RMK AO2 SLP130 T01780128 10244 20178 53001

KPYM - Plymouth, MA


Distance from station: SE 44mi, 72km

Updated Sat Jul 31, 2021 7:52pm EDT

Clear

Clear

Wind from W

Wind:

W 5 mph, 7 km/h

Temperature: 68°F (20°C)

Dew Point: 52°F (11°C)

Humidity: 56%

Barometer: 29.92 in (1013.2 hPa)

Clouds: Clear

Visibility: 10 miles (16 km)


2021/07/31 23:52 KPYM 312352Z AUTO 28004KT 10SM CLR 20/11 A2992 RMK AO2 SLP130 T02000111 10239 20200 53003

KAFN - Jaffrey, NH


Distance from station: WNW 46mi, 74km

Updated Sat Jul 31, 2021 7:52pm EDT

Clear

Clear

Wind from calm

Wind:

Calm

Temperature: 63°F (17°C)

Dew Point: 54°F (12°C)

Humidity: 73%

Barometer: 29.95 in (1014.2 hPa)

Clouds: Clear

Visibility: 10 miles (16 km)


2021/07/31 23:52 KAFN 312352Z AUTO 00000KT 10SM CLR 17/12 A2995 RMK AO2 SLP144 T01720117 10222 20172 55000

KPSM - Portsmouth/Pease, NH


Distance from station: NNE 48mi, 78km

Updated Sat Jul 31, 2021 7:56pm EDT

Mostly cloudy

Mostly cloudy

Wind from W

Wind:

W 5 mph, 7 km/h

Temperature: 68°F (20°C)

Dew Point: 46°F (8°C)

Humidity: 46%

Barometer: 29.90 in (1012.5 hPa)

Clouds: Mostly cloudy

Visibility: 10 miles (16 km)

Cloud details: Few Clouds 7000 ft
Partly cloudy 20000 ft
Mostly cloudy 25000 ft


2021/07/31 23:56 KPSM 312356Z 27004KT 10SM FEW070 SCT200 BKN250 20/08 A2990 RMK AO2A SLP127 T02000083 10244 20200 52006

KPVD - Providence/Green, RI


Distance from station: S 51mi, 82km

Updated Sat Jul 31, 2021 7:51pm EDT

Partly cloudy

Partly cloudy

Wind from WNW

Wind:

WNW 5 mph, 7 km/h

Temperature: 70°F (21°C)

Dew Point: 52°F (11°C)

Humidity: 53%

Barometer: 29.93 in (1013.5 hPa)

Clouds: Partly cloudy

Visibility: 10 miles (16 km)

Cloud details: Partly cloudy 25000 ft


2021/07/31 23:51 KPVD 312351Z 30004KT 10SM SCT250 21/11 A2993 RMK AO2 SLP133 T02110106 10244 20211 55001

KCON - Concord, NH


Distance from station: NNW 54mi, 87km

Updated Sat Jul 31, 2021 7:51pm EDT

Clear

Clear

Wind from WSW

Wind:

WSW 5 mph, 7 km/h

Temperature: 66°F (19°C)

Dew Point: 46°F (8°C)

Humidity: 49%

Barometer: 29.90 in (1012.5 hPa)

Clouds: Clear

Visibility: 10 miles (16 km)


2021/07/31 23:51 KCON 312351Z AUTO 25004KT 10SM CLR 19/08 A2990 RMK AO2 SLP126 T01940083 10239 20194 53002

KEWB - New Bedford, MA


Distance from station: SSE 54mi, 87km

Updated Sat Jul 31, 2021 7:53pm EDT

Clear

Clear

Wind from WSW

Wind:

WSW 3 mph, 6 km/h

Temperature: 66°F (19°C)

Dew Point: 55°F (13°C)

Humidity: 68%

Barometer: 29.91 in (1012.9 hPa)

Clouds: Clear

Visibility: 10 miles (16 km)


2021/07/31 23:53 KEWB 312353Z 24003KT 10SM CLR 19/13 A2991 RMK AO2 SLP129 T01940128 10239 20194 55001

KORE - Orange, Massachusetts, USA


Distance from station: W 54mi, 87km

Updated Sat Jul 31, 2021 7:52pm EDT

Clear

Clear

Wind from WSW

Wind:

WSW 5 mph, 7 km/h

Temperature: 66°F (19°C)

Dew Point: 52°F (11°C)

Humidity: 60%

Barometer: 29.94 in (1013.9 hPa)

Clouds: Clear

Visibility: 10 miles (16 km)


2021/07/31 23:52 KORE 312352Z AUTO 24004KT 10SM CLR 19/11 A2994 RMK AO2 SLP140 T01890106 10233 20189 55002

KCEF - Chicopee/Westover, Massachusetts, USA


Distance from station: WSW 67mi, 108km

Updated Sat Jul 31, 2021 6:56pm EDT (NOT Current)

Partly cloudy

Partly cloudy

Wind from WNW

Wind:

WNW 9 mph, 15 km/h

Temperature: 72°F (22°C)

Dew Point: 46°F (8°C)

Humidity: 41%

Barometer: 29.92 in (1013.2 hPa)

Clouds: Partly cloudy

Visibility: 10 miles (16 km)

Cloud details: Few Clouds 6000 ft
Few Clouds 23000 ft
Partly cloudy 28000 ft


2021/07/31 22:56 KCEF 312256Z 29008KT 10SM FEW060 FEW230 SCT280 22/08 A2992 RMK AO2A FU SCT280 SLP137 T02190080

KMWN - Mount Washington, NH


Distance from station: N 126mi, 203km

Updated Sat Jul 31, 2021 7:59pm EDT

Mostly cloudy

Mostly cloudy

Wind from WNW

Wind:

WNW 53 mph, 85 km/h

Temperature: 37°F (3°C)

Wind Chill: 21°F (-6°C)

Dew Point: 36°F (2°C)

Humidity: 93%

Clouds: Mostly cloudy

Visibility: 110 miles (176 km)

Cloud details: Partly cloudy 1000 ft
Partly cloudy 2500 ft
Mostly cloudy 16000 ft
Mostly cloudy 19000 ft


2021/07/31 23:59 KMWN 312359Z 29046KT 110SM SCT010 SCT025 BKN160 BKN190 03/02 RMK 10051 20032

KEMT - El Monte, California, USA


Distance from station: W 2566mi, 4130km

Updated Sat Jul 31, 2021 7:45pm EDT

Clear

Clear

Wind from SSW

Wind:

SSW 13 mph, 20 km/h,
Gust: 16 mph, 26 km/h

Temperature: 88°F (31°C)

Dew Point: 55°F (13°C)

Humidity: 33%

Barometer: 29.97 in (1014.9 hPa)

Clouds: Clear

Visibility: 10 miles (16 km)


2021/07/31 23:45 KEMT 312345Z 20011G14KT 10SM CLR 31/13 A2997